Time;durP1;ratioP1;P1;durP2;ratioP2;P2;SDS_P1;SDS_P2;PMS_P1;PMS_P2;Temp;Humidity;BMP_temperature;BMP_pressure;BME280_temperature;BME280_humidity;BME280_pressure;Samples;Min_cycle;Max_cycle;Signal;HPM_P1;HPM_P2
2021/12/09 00:01:39;;;;;;;44.00;26.20;;;2.90;99.90;;;;;;633843;226;26791;-78
2021/12/09 00:04:06;;;;;;;44.43;26.43;;;2.90;99.90;;;;;;634107;226;26528;-76
2021/12/09 00:06:31;;;;;;;47.47;27.07;;;2.90;99.90;;;;;;635825;224;26853;-77
2021/12/09 00:08:58;;;;;;;44.43;26.33;;;3.00;99.90;;;;;;635467;226;26618;-77
2021/12/09 00:11:27;;;;;;;50.93;26.60;;;2.90;99.90;;;;;;635095;226;26790;-77
2021/12/09 00:13:53;;;;;;;42.80;25.90;;;2.90;99.90;;;;;;634978;226;26572;-77
2021/12/09 00:16:20;;;;;;;53.97;28.10;;;3.00;99.90;;;;;;634848;226;26840;-77
2021/12/09 00:18:48;;;;;;;50.33;27.70;;;3.00;99.90;;;;;;634749;226;26633;-76
2021/12/09 00:21:15;;;;;;;48.60;27.10;;;2.80;99.90;;;;;;634861;226;26906;-77
2021/12/09 00:23:42;;;;;;;46.00;27.47;;;2.90;99.90;;;;;;634630;226;26596;-77
2021/12/09 00:26:10;;;;;;;50.20;26.97;;;2.80;99.90;;;;;;634528;226;26580;-76
2021/12/09 00:28:38;;;;;;;49.93;29.00;;;2.80;99.90;;;;;;630410;227;26566;-77
2021/12/09 00:31:06;;;;;;;54.27;28.90;;;2.80;99.90;;;;;;624153;229;26551;-76
2021/12/09 00:33:40;;;;;;;51.40;28.27;;;2.90;99.90;;;;;;624122;230;26554;-76
2021/12/09 00:36:01;;;;;;;49.97;28.60;;;2.90;99.90;;;;;;623542;230;26547;-76
2021/12/09 00:38:35;;;;;;;52.93;27.67;;;2.80;99.90;;;;;;624116;230;26822;-77
2021/12/09 00:41:00;;;;;;;53.53;30.37;;;2.60;99.90;;;;;;623954;227;26556;-77
2021/12/09 00:43:27;;;;;;;51.37;29.70;;;2.60;99.90;;;;;;623708;227;26926;-77
2021/12/09 00:45:57;;;;;;;54.13;29.30;;;2.60;99.90;;;;;;623922;229;26591;-78
2021/12/09 00:48:22;;;;;;;51.00;28.73;;;2.50;99.90;;;;;;626681;226;26893;-78
2021/12/09 00:50:49;;;;;;;54.53;29.33;;;2.40;99.90;;;;;;629372;226;26610;-77
2021/12/09 00:53:16;;;;;;;58.23;30.20;;;2.30;99.90;;;;;;636493;226;26832;-78
2021/12/09 00:55:43;;;;;;;55.20;29.20;;;2.30;99.90;;;;;;636513;226;26753;-78
2021/12/09 00:58:10;;;;;;;51.80;28.67;;;2.40;99.90;;;;;;636515;226;26799;-78
2021/12/09 01:00:38;;;;;;;52.23;30.47;;;2.60;99.90;;;;;;636240;226;26548;-79
2021/12/09 01:03:05;;;;;;;50.27;29.03;;;2.70;99.90;;;;;;636484;226;26746;-78
2021/12/09 01:05:32;;;;;;;55.03;29.93;;;2.60;99.90;;;;;;636565;226;26547;-78
2021/12/09 01:07:59;;;;;;;57.07;29.50;;;2.50;99.90;;;;;;636556;226;26548;-78
2021/12/09 01:10:28;;;;;;;58.53;31.03;;;2.60;99.90;;;;;;636500;226;26559;-78
2021/12/09 01:12:55;;;;;;;51.73;28.63;;;2.60;99.90;;;;;;633534;226;26560;-79
2021/12/09 01:15:23;;;;;;;57.13;30.13;;;2.60;99.90;;;;;;625896;226;26603;-78
2021/12/09 01:17:51;;;;;;;51.77;29.10;;;2.70;99.90;;;;;;630614;225;26600;-78
2021/12/09 01:20:18;;;;;;;57.70;31.10;;;2.60;99.90;;;;;;634971;226;26649;-78
2021/12/09 01:22:46;;;;;;;57.20;29.67;;;2.70;99.90;;;;;;630337;225;26621;-78
2021/12/09 01:25:13;;;;;;;58.53;30.70;;;2.70;99.90;;;;;;632701;226;26824;-79
2021/12/09 01:27:43;;;;;;;59.23;32.07;;;2.70;99.90;;;;;;626039;226;26611;-79
2021/12/09 01:30:10;;;;;;;55.13;29.90;;;2.90;99.90;;;;;;624809;226;26845;-78
2021/12/09 01:32:34;;;;;;;54.33;30.40;;;3.00;99.90;;;;;;624577;230;26793;-78
2021/12/09 01:35:02;;;;;;;57.27;30.80;;;3.00;99.90;;;;;;624767;230;26521;-78
2021/12/09 01:37:29;;;;;;;52.57;30.43;;;3.00;99.90;;;;;;624500;230;26770;-78
2021/12/09 01:39:56;;;;;;;58.67;30.57;;;3.00;99.90;;;;;;624576;229;26577;-78
2021/12/09 01:42:23;;;;;;;54.83;30.93;;;3.10;99.90;;;;;;624630;230;26754;-78
2021/12/09 01:44:51;;;;;;;58.47;30.77;;;2.70;99.90;;;;;;624595;230;26525;-79
2021/12/09 01:47:18;;;;;;;53.77;31.00;;;2.80;99.90;;;;;;624634;230;26507;-78
2021/12/09 01:49:46;;;;;;;56.53;30.50;;;2.80;99.90;;;;;;624579;230;26535;-79
2021/12/09 01:52:14;;;;;;;52.30;31.27;;;3.10;99.90;;;;;;624354;230;26571;-78
2021/12/09 01:54:41;;;;;;;56.10;31.23;;;3.10;99.90;;;;;;623673;230;26633;-77
2021/12/09 01:57:08;;;;;;;57.57;30.03;;;3.10;99.90;;;;;;623748;230;26601;-78
2021/12/09 01:59:35;;;;;;;55.80;30.40;;;3.00;99.90;;;;;;623778;230;26896;-79
2021/12/09 02:02:02;;;;;;;56.17;30.43;;;2.90;99.90;;;;;;623901;230;26596;-78
2021/12/09 02:04:30;;;;;;;59.13;31.40;;;2.60;99.90;;;;;;623851;230;26590;-78
2021/12/09 02:06:58;;;;;;;57.03;30.30;;;2.70;99.90;;;;;;623887;226;26633;-78
2021/12/09 02:09:26;;;;;;;60.40;31.93;;;2.80;99.90;;;;;;623835;230;26630;-78
2021/12/09 02:11:53;;;;;;;56.03;31.07;;;2.80;99.90;;;;;;623840;230;26602;-78
2021/12/09 02:14:20;;;;;;;57.13;32.90;;;2.90;99.90;;;;;;623861;230;26586;-78
2021/12/09 02:16:47;;;;;;;58.90;31.00;;;2.80;99.90;;;;;;623803;230;26880;-77
2021/12/09 02:19:15;;;;;;;59.47;29.80;;;2.70;99.90;;;;;;623816;230;26657;-77
2021/12/09 02:21:42;;;;;;;59.03;31.20;;;2.80;99.90;;;;;;623716;230;27311;-78
2021/12/09 02:24:09;;;;;;;58.90;31.30;;;2.80;99.90;;;;;;623704;227;26578;-77
2021/12/09 02:26:36;;;;;;;51.20;29.63;;;2.70;99.90;;;;;;623663;227;26848;-78
2021/12/09 02:29:03;;;;;;;60.23;30.33;;;2.70;99.90;;;;;;624946;228;26637;-77
2021/12/09 02:31:30;;;;;;;59.57;31.00;;;2.70;99.90;;;;;;625020;225;27264;-77
2021/12/09 02:33:58;;;;;;;51.23;30.37;;;2.80;99.90;;;;;;624831;230;26510;-78
2021/12/09 02:36:26;;;;;;;54.20;31.07;;;2.90;99.90;;;;;;624659;230;26550;-78
2021/12/09 02:38:54;;;;;;;59.37;31.37;;;3.10;99.90;;;;;;624342;230;26628;-78
2021/12/09 02:41:23;;;;;;;59.30;30.93;;;3.10;99.90;;;;;;624407;230;26632;-77
2021/12/09 02:43:54;;;;;;;54.90;30.00;;;3.00;99.90;;;;;;624341;230;26593;-77
2021/12/09 02:46:19;;;;;;;55.70;32.17;;;3.00;99.90;;;;;;624056;230;26617;-78
2021/12/09 02:48:46;;;;;;;57.70;30.53;;;3.00;99.90;;;;;;624104;230;26949;-78
2021/12/09 02:51:13;;;;;;;55.10;32.10;;;2.90;99.90;;;;;;624230;226;26547;-78
2021/12/09 02:53:40;;;;;;;60.67;31.63;;;2.90;99.90;;;;;;624157;230;26878;-77
2021/12/09 02:56:08;;;;;;;60.27;30.93;;;3.00;99.90;;;;;;624171;230;26551;-77
2021/12/09 02:58:35;;;;;;;56.00;32.43;;;3.00;99.90;;;;;;624092;230;27262;-77
2021/12/09 03:01:12;;;;;;;56.97;31.27;;;3.00;99.90;;;;;;624186;230;26564;-78
2021/12/09 03:03:34;;;;;;;59.53;32.07;;;2.80;99.90;;;;;;623574;230;26555;-77
2021/12/09 03:06:02;;;;;;;58.10;31.20;;;2.30;99.90;;;;;;623903;230;26601;-77
2021/12/09 03:08:34;;;;;;;59.67;32.07;;;2.30;99.90;;;;;;623806;230;26641;-78
2021/12/09 03:11:08;;;;;;;52.37;30.23;;;2.30;99.90;;;;;;623765;230;26842;-77
2021/12/09 03:13:35;;;;;;;57.57;31.97;;;2.20;99.90;;;;;;629662;227;26621;-78
2021/12/09 03:16:03;;;;;;;54.47;29.37;;;2.30;99.90;;;;;;634174;226;26541;-77
2021/12/09 03:18:30;;;;;;;57.30;32.17;;;2.50;99.90;;;;;;634562;223;26561;-78
2021/12/09 03:20:57;;;;;;;57.63;30.67;;;2.60;99.90;;;;;;634615;227;26776;-77
2021/12/09 03:23:26;;;;;;;60.23;32.40;;;2.80;99.90;;;;;;634643;227;26578;-78
2021/12/09 03:25:51;;;;;;;56.70;31.90;;;2.90;99.90;;;;;;634521;226;26783;-77
2021/12/09 03:28:18;;;;;;;59.23;32.17;;;2.80;99.90;;;;;;634590;226;26518;-78
2021/12/09 03:30:46;;;;;;;56.00;31.17;;;2.70;99.90;;;;;;634633;227;26801;-78
2021/12/09 03:33:13;;;;;;;56.33;31.43;;;2.70;99.90;;;;;;634689;227;26526;-77
2021/12/09 03:35:40;;;;;;;58.20;32.47;;;2.60;99.90;;;;;;625865;227;26751;-78
2021/12/09 03:38:07;;;;;;;60.57;32.27;;;2.70;99.90;;;;;;634615;226;26559;-78
2021/12/09 03:40:34;;;;;;;58.90;31.20;;;2.70;99.90;;;;;;635844;224;26560;-77
2021/12/09 03:43:02;;;;;;;55.00;31.40;;;2.60;99.90;;;;;;635960;221;26528;-77
2021/12/09 03:45:30;;;;;;;50.87;31.03;;;2.60;99.90;;;;;;635233;226;26540;-78
2021/12/09 03:47:58;;;;;;;53.20;30.97;;;2.50;99.90;;;;;;635119;226;26541;-77
2021/12/09 03:50:26;;;;;;;56.27;31.03;;;2.40;99.90;;;;;;634962;226;26608;-77
2021/12/09 03:52:54;;;;;;;57.67;31.20;;;2.40;99.90;;;;;;634889;226;26614;-77
2021/12/09 03:55:21;;;;;;;59.50;32.77;;;2.50;99.90;;;;;;634861;226;26600;-78
2021/12/09 03:57:48;;;;;;;57.20;31.83;;;2.60;99.90;;;;;;634720;226;26822;-78
2021/12/09 04:00:15;;;;;;;53.87;30.70;;;2.60;99.90;;;;;;634501;226;26611;-78
2021/12/09 04:02:43;;;;;;;53.67;31.03;;;2.60;99.90;;;;;;634537;222;26599;-78
2021/12/09 04:05:11;;;;;;;57.40;30.43;;;2.70;99.90;;;;;;634509;227;26576;-77
2021/12/09 04:07:39;;;;;;;59.33;32.43;;;2.70;99.90;;;;;;634491;227;26619;-77
2021/12/09 04:10:08;;;;;;;50.80;29.93;;;2.70;99.90;;;;;;634519;227;26625;-78
2021/12/09 04:12:35;;;;;;;58.17;30.13;;;2.70;99.90;;;;;;634507;227;26591;-78
2021/12/09 04:15:02;;;;;;;53.50;30.90;;;2.80;99.90;;;;;;634559;226;26598;-78
2021/12/09 04:17:29;;;;;;;61.87;31.93;;;2.90;99.90;;;;;;634248;226;26602;-78
2021/12/09 04:19:56;;;;;;;57.87;32.03;;;2.60;99.90;;;;;;634216;227;26542;-78
2021/12/09 04:22:24;;;;;;;62.13;31.90;;;2.30;99.90;;;;;;634218;227;26806;-78
2021/12/09 04:24:51;;;;;;;53.30;30.83;;;2.40;99.90;;;;;;634269;227;26536;-78
2021/12/09 04:27:18;;;;;;;58.17;31.70;;;2.50;99.90;;;;;;634283;227;26886;-78
2021/12/09 04:29:45;;;;;;;57.17;32.43;;;2.50;99.90;;;;;;634268;227;26565;-78
2021/12/09 04:32:12;;;;;;;57.47;31.83;;;2.50;99.90;;;;;;634288;227;26772;-78
2021/12/09 04:34:40;;;;;;;51.70;29.53;;;2.60;99.90;;;;;;634276;226;26545;-79
2021/12/09 04:37:07;;;;;;;58.07;32.53;;;2.60;99.90;;;;;;634184;223;26932;-78
2021/12/09 04:39:35;;;;;;;55.93;31.70;;;2.70;99.90;;;;;;634166;227;26580;-78
2021/12/09 04:42:03;;;;;;;52.37;30.07;;;2.80;99.90;;;;;;634180;227;26557;-78
2021/12/09 04:44:30;;;;;;;55.40;30.63;;;2.80;99.90;;;;;;634253;226;26544;-78
2021/12/09 04:47:00;;;;;;;56.67;30.13;;;2.70;99.90;;;;;;634201;227;26549;-77
2021/12/09 04:49:25;;;;;;;55.67;31.07;;;2.70;99.90;;;;;;634088;226;26594;-78
2021/12/09 04:51:52;;;;;;;55.27;30.20;;;2.70;99.90;;;;;;635239;222;26592;-78
2021/12/09 04:54:20;;;;;;;56.83;30.47;;;2.80;99.90;;;;;;635608;226;26879;-78
2021/12/09 04:56:47;;;;;;;55.10;32.10;;;2.70;99.90;;;;;;635274;226;26547;-78
2021/12/09 04:59:14;;;;;;;61.40;31.50;;;2.60;99.90;;;;;;635089;226;26833;-77
2021/12/09 05:01:47;;;;;;;55.43;30.87;;;2.60;99.90;;;;;;634822;226;26599;-78
2021/12/09 05:04:08;;;;;;;60.03;30.47;;;2.80;99.90;;;;;;634252;226;26906;-78
2021/12/09 05:06:36;;;;;;;58.13;32.27;;;2.90;99.90;;;;;;634661;225;26560;-78
2021/12/09 05:09:09;;;;;;;55.33;30.97;;;2.90;99.90;;;;;;634630;226;26853;-78
2021/12/09 05:11:47;;;;;;;52.83;30.70;;;2.80;99.90;;;;;;633971;226;26645;-78
2021/12/09 05:13:59;;;;;;;56.00;28.83;;;2.80;99.90;;;;;;633144;226;26611;-78
2021/12/09 05:16:27;;;;;;;55.43;30.90;;;2.50;99.90;;;;;;634359;226;26551;-78
2021/12/09 05:18:58;;;;;;;55.70;30.70;;;2.20;99.90;;;;;;634295;226;26635;-78
2021/12/09 05:21:25;;;;;;;51.30;30.23;;;2.20;99.90;;;;;;634310;226;26623;-78
2021/12/09 05:23:52;;;;;;;47.87;29.40;;;2.40;99.90;;;;;;634314;226;26841;-78
2021/12/09 05:26:22;;;;;;;56.70;31.20;;;2.40;99.90;;;;;;634438;226;26597;-78
2021/12/09 05:28:54;;;;;;;53.90;29.80;;;2.40;99.90;;;;;;634430;226;26610;-79
2021/12/09 05:33:49;;;;;;;55.73;30.87;;;2.50;99.90;;;;;;634688;223;26514;-78
2021/12/09 05:36:17;;;;;;;54.13;29.53;;;2.60;99.90;;;;;;634575;227;26558;-77
2021/12/09 05:38:45;;;;;;;56.40;30.50;;;2.70;99.90;;;;;;634621;227;26550;-77
2021/12/09 05:41:12;;;;;;;55.20;28.97;;;2.70;99.90;;;;;;634323;226;26548;-77
2021/12/09 05:43:40;;;;;;;54.37;28.60;;;2.70;99.90;;;;;;634234;226;26558;-78
2021/12/09 05:46:07;;;;;;;56.63;29.87;;;2.80;99.90;;;;;;634173;227;26819;-77
2021/12/09 05:48:34;;;;;;;60.37;31.50;;;2.80;99.90;;;;;;634167;227;26557;-77
2021/12/09 05:51:01;;;;;;;56.77;29.90;;;2.70;99.90;;;;;;634176;227;26882;-79
2021/12/09 05:53:28;;;;;;;55.17;30.67;;;2.60;99.90;;;;;;634250;226;26599;-78
2021/12/09 05:55:55;;;;;;;59.20;30.23;;;2.70;99.90;;;;;;634179;227;26822;-77
2021/12/09 05:58:23;;;;;;;58.43;30.40;;;2.60;99.90;;;;;;634216;226;26594;-80
2021/12/09 06:00:50;;;;;;;64.73;34.23;;;2.70;99.90;;;;;;634277;226;26791;-77
2021/12/09 06:03:19;;;;;;;56.97;31.33;;;2.80;99.90;;;;;;635179;224;26524;-78
2021/12/09 06:05:44;;;;;;;60.00;33.07;;;2.80;99.90;;;;;;635631;226;26795;-78
2021/12/09 06:08:12;;;;;;;56.37;32.50;;;2.70;99.90;;;;;;635358;226;26531;-78
2021/12/09 06:10:40;;;;;;;58.17;31.93;;;2.80;99.90;;;;;;635286;226;26543;-79
2021/12/09 06:13:08;;;;;;;58.77;30.63;;;2.90;99.90;;;;;;634989;226;26552;-78
2021/12/09 06:15:36;;;;;;;59.67;32.17;;;2.80;99.90;;;;;;634934;226;26582;-78
2021/12/09 06:18:03;;;;;;;56.00;29.60;;;2.80;99.90;;;;;;634931;226;26597;-78
2021/12/09 06:20:31;;;;;;;55.00;31.30;;;2.90;99.90;;;;;;634787;226;26595;-78
2021/12/09 06:22:58;;;;;;;61.37;33.63;;;3.00;99.90;;;;;;634571;227;27223;-78
2021/12/09 06:25:25;;;;;;;57.80;32.93;;;3.10;99.90;;;;;;634506;227;26608;-78
2021/12/09 06:27:55;;;;;;;59.83;33.37;;;3.00;99.90;;;;;;634482;227;26670;-78
2021/12/09 06:30:20;;;;;;;57.67;32.33;;;3.00;99.90;;;;;;634389;226;26629;-78
2021/12/09 06:32:47;;;;;;;55.63;30.70;;;2.90;99.90;;;;;;634529;227;26576;-78
2021/12/09 06:35:14;;;;;;;60.40;32.63;;;3.10;99.90;;;;;;634597;226;26830;-79
2021/12/09 06:37:44;;;;;;;59.60;32.43;;;3.20;99.90;;;;;;634703;226;26607;-78
2021/12/09 06:40:09;;;;;;;54.03;29.93;;;3.20;99.90;;;;;;634059;226;26839;-79
2021/12/09 06:42:36;;;;;;;59.87;32.07;;;3.30;99.90;;;;;;634195;227;26794;-78
2021/12/09 06:45:04;;;;;;;59.93;32.30;;;3.20;99.90;;;;;;634266;226;26770;-78
2021/12/09 06:47:31;;;;;;;62.03;32.37;;;3.10;99.90;;;;;;634195;227;26789;-78
2021/12/09 06:49:58;;;;;;;60.03;32.87;;;3.10;99.90;;;;;;634187;226;26572;-78
2021/12/09 06:52:25;;;;;;;73.33;35.87;;;3.10;99.90;;;;;;634195;227;26790;-79
2021/12/09 06:54:52;;;;;;;66.73;33.70;;;3.10;99.90;;;;;;634168;226;26557;-79
2021/12/09 06:57:20;;;;;;;60.53;33.20;;;3.10;99.90;;;;;;634113;227;27272;-78
2021/12/09 06:59:47;;;;;;;68.70;34.67;;;3.10;99.90;;;;;;634163;222;26578;-83
2021/12/09 07:02:14;;;;;;;67.70;36.50;;;3.10;99.90;;;;;;634204;226;27227;-82
2021/12/09 07:04:42;;;;;;;61.93;34.17;;;2.90;99.90;;;;;;634215;227;26618;-83
2021/12/09 07:07:09;;;;;;;65.43;35.53;;;2.80;99.90;;;;;;634307;227;26562;-83
2021/12/09 07:09:38;;;;;;;64.90;33.87;;;2.70;99.90;;;;;;634369;226;26614;-82
2021/12/09 07:12:05;;;;;;;65.27;34.80;;;2.30;99.90;;;;;;634131;226;26552;-83
2021/12/09 07:14:33;;;;;;;67.57;34.77;;;2.20;99.90;;;;;;634875;224;26625;-83
2021/12/09 07:17:01;;;;;;;63.77;32.97;;;2.30;99.90;;;;;;635713;226;26566;-82
2021/12/09 07:19:29;;;;;;;65.93;34.03;;;2.50;99.90;;;;;;635045;222;26634;-86
2021/12/09 07:21:57;;;;;;;59.87;32.97;;;2.50;99.90;;;;;;635128;226;26884;-82
2021/12/09 07:24:24;;;;;;;63.67;33.77;;;2.70;99.90;;;;;;634889;222;26597;-82
2021/12/09 07:26:51;;;;;;;67.93;33.80;;;2.70;99.90;;;;;;634848;226;26787;-82
2021/12/09 07:29:19;;;;;;;66.67;33.83;;;2.90;99.90;;;;;;634816;226;26588;-83
2021/12/09 07:31:46;;;;;;;63.97;32.00;;;2.90;99.90;;;;;;634894;226;26592;-83
2021/12/09 07:34:13;;;;;;;59.33;32.60;;;3.10;99.90;;;;;;634859;222;26596;-82
2021/12/09 07:36:40;;;;;;;64.93;32.70;;;3.00;99.90;;;;;;634580;227;26937;-83
2021/12/09 07:39:08;;;;;;;66.03;34.63;;;3.10;99.90;;;;;;634500;226;26658;-83
2021/12/09 07:41:35;;;;;;;65.07;35.03;;;3.00;99.90;;;;;;634586;227;26821;-83
2021/12/09 07:44:02;;;;;;;63.30;34.30;;;2.70;99.90;;;;;;634556;226;26595;-83
2021/12/09 07:46:29;;;;;;;64.97;34.97;;;2.60;99.90;;;;;;634625;226;26605;-82
2021/12/09 07:48:56;;;;;;;62.33;33.67;;;2.60;99.90;;;;;;634579;227;26857;-82
2021/12/09 07:51:24;;;;;;;69.23;35.53;;;2.70;99.90;;;;;;634410;226;26558;-82
2021/12/09 07:53:51;;;;;;;64.63;32.60;;;2.90;99.90;;;;;;634253;227;26773;-82
2021/12/09 07:56:18;;;;;;;62.60;33.93;;;3.00;99.90;;;;;;634245;226;26728;-82
2021/12/09 07:58:45;;;;;;;66.67;33.73;;;3.10;99.90;;;;;;634185;227;26827;-82
2021/12/09 08:01:12;;;;;;;66.67;33.87;;;3.10;99.90;;;;;;634175;227;26562;-82
2021/12/09 08:03:40;;;;;;;64.30;34.53;;;3.10;99.90;;;;;;635700;226;26850;-82
2021/12/09 08:06:07;;;;;;;76.37;35.53;;;3.20;99.90;;;;;;636364;222;26539;-82
2021/12/09 08:08:34;;;;;;;69.63;36.73;;;3.20;99.90;;;;;;636345;226;26563;-83
2021/12/09 08:11:02;;;;;;;63.13;35.47;;;2.90;99.90;;;;;;634701;226;26608;-82
2021/12/09 08:13:31;;;;;;;70.67;35.50;;;2.80;99.90;;;;;;634035;227;26583;-82
2021/12/09 08:15:59;;;;;;;66.73;34.63;;;2.80;99.90;;;;;;634195;222;26549;-83
2021/12/09 08:18:27;;;;;;;61.13;34.13;;;3.00;99.90;;;;;;634130;223;26557;-82
2021/12/09 08:20:54;;;;;;;65.70;35.83;;;3.00;99.90;;;;;;634213;227;26557;-82
2021/12/09 08:23:21;;;;;;;72.57;37.47;;;2.90;99.90;;;;;;634083;226;26765;-82
2021/12/09 08:25:49;;;;;;;66.60;35.83;;;3.00;99.90;;;;;;634576;224;26766;-81
2021/12/09 08:28:16;;;;;;;67.00;34.97;;;3.10;99.90;;;;;;635741;226;26795;-82
2021/12/09 08:30:43;;;;;;;72.17;35.37;;;3.10;99.90;;;;;;635371;226;26623;-80
2021/12/09 08:33:10;;;;;;;66.93;34.73;;;3.00;99.90;;;;;;635151;226;26790;-82
2021/12/09 08:35:38;;;;;;;68.53;36.33;;;2.90;99.90;;;;;;634989;226;26626;-82
2021/12/09 08:38:05;;;;;;;67.43;35.13;;;2.90;99.90;;;;;;634822;226;26524;-82
2021/12/09 08:40:33;;;;;;;63.83;35.60;;;3.00;99.90;;;;;;634944;226;26589;-82
2021/12/09 08:43:01;;;;;;;69.50;36.80;;;3.00;99.90;;;;;;634963;226;26633;-81
2021/12/09 08:45:29;;;;;;;65.63;36.00;;;3.20;99.90;;;;;;634709;226;26611;-82
2021/12/09 08:47:55;;;;;;;70.73;35.13;;;3.30;99.90;;;;;;634485;226;26595;-81
2021/12/09 08:50:23;;;;;;;70.87;38.77;;;3.40;99.90;;;;;;634629;227;26832;-82
2021/12/09 08:52:51;;;;;;;74.33;37.97;;;3.10;99.90;;;;;;634660;227;26607;-82
2021/12/09 08:55:19;;;;;;;67.77;35.97;;;3.10;99.90;;;;;;634623;226;26594;-82
2021/12/09 08:57:47;;;;;;;70.47;36.87;;;3.20;99.90;;;;;;634420;226;26594;-82
2021/12/09 09:00:15;;;;;;;71.73;38.77;;;3.40;99.90;;;;;;634601;227;26629;-81
2021/12/09 09:02:43;;;;;;;66.67;35.93;;;3.60;99.90;;;;;;634394;226;26553;-82
2021/12/09 09:05:17;;;;;;;64.23;35.97;;;3.50;99.90;;;;;;632428;226;26629;-81
2021/12/09 09:07:44;;;;;;;70.17;36.63;;;3.60;99.90;;;;;;632306;226;27321;-84
2021/12/09 09:10:11;;;;;;;66.33;37.10;;;3.60;99.90;;;;;;632346;226;26637;-83
2021/12/09 09:12:38;;;;;;;63.77;35.00;;;3.60;99.90;;;;;;629243;226;27349;-83
2021/12/09 09:15:08;;;;;;;64.40;35.70;;;3.30;99.90;;;;;;630535;226;26597;-82
2021/12/09 09:17:35;;;;;;;61.80;35.10;;;3.20;99.90;;;;;;632025;226;26624;-82
2021/12/09 09:20:02;;;;;;;67.33;35.30;;;3.20;99.90;;;;;;630851;226;26603;-82
2021/12/09 09:22:29;;;;;;;69.80;36.77;;;3.30;99.90;;;;;;629858;226;26581;-78
2021/12/09 09:24:56;;;;;;;72.53;37.60;;;3.60;99.90;;;;;;632278;226;26893;-78
2021/12/09 09:27:24;;;;;;;64.93;36.20;;;3.60;99.90;;;;;;627305;226;26813;-80
2021/12/09 09:29:51;;;;;;;62.40;35.73;;;3.80;99.90;;;;;;633520;226;26628;-77
2021/12/09 09:32:19;;;;;;;64.30;37.10;;;4.00;99.90;;;;;;631043;226;26598;-78
2021/12/09 09:34:48;;;;;;;66.43;35.70;;;4.00;99.90;;;;;;630726;226;26597;-78
2021/12/09 09:37:15;;;;;;;64.73;36.73;;;4.00;99.90;;;;;;630554;224;26608;-79
2021/12/09 09:39:44;;;;;;;68.80;38.93;;;3.90;99.90;;;;;;631720;225;26936;-79
2021/12/09 09:44:58;;;;;;;64.33;36.40;;;4.00;99.90;;;;;;632914;221;26942;-79
2021/12/09 09:47:25;;;;;;;61.53;35.90;;;4.20;99.90;;;;;;633221;225;26592;-78
2021/12/09 09:49:53;;;;;;;68.70;37.40;;;4.20;99.90;;;;;;629914;224;26682;-78
2021/12/09 09:52:20;;;;;;;70.20;37.17;;;4.30;99.90;;;;;;630399;226;26596;-79
2021/12/09 09:54:48;;;;;;;64.73;37.97;;;4.60;99.90;;;;;;630525;226;26610;-79
2021/12/09 09:57:16;;;;;;;63.40;37.10;;;4.80;99.90;;;;;;630667;226;26645;-79
2021/12/09 09:59:44;;;;;;;60.37;35.80;;;4.90;99.90;;;;;;629206;226;26698;-79
2021/12/09 10:02:12;;;;;;;59.43;35.83;;;5.10;99.90;;;;;;626948;227;26539;-79
2021/12/09 10:04:48;;;;;;;63.90;35.30;;;5.10;99.90;;;;;;628916;227;26555;-80
2021/12/09 10:07:12;;;;;;;62.17;35.87;;;5.20;99.90;;;;;;632861;226;26625;-79
2021/12/09 10:09:40;;;;;;;60.97;36.07;;;5.10;99.90;;;;;;636672;226;26557;-79
2021/12/09 10:12:08;;;;;;;67.73;35.57;;;5.10;99.90;;;;;;628352;226;26633;-79
2021/12/09 10:14:36;;;;;;;58.27;35.37;;;4.90;99.90;;;;;;629423;226;26602;-79
2021/12/09 10:17:08;;;;;;;61.20;34.73;;;4.90;99.90;;;;;;634997;222;26643;-79
2021/12/09 10:19:35;;;;;;;63.50;34.37;;;4.70;99.90;;;;;;636699;221;26859;-79
2021/12/09 10:22:03;;;;;;;64.63;36.07;;;4.60;99.90;;;;;;624278;227;26558;-79
2021/12/09 10:24:32;;;;;;;62.70;35.50;;;4.30;99.90;;;;;;633739;227;26807;-79
2021/12/09 10:27:00;;;;;;;58.87;35.03;;;4.30;99.90;;;;;;634025;226;26558;-80
2021/12/09 10:29:33;;;;;;;57.47;34.73;;;4.40;99.90;;;;;;627167;226;26652;-79
2021/12/09 10:31:58;;;;;;;59.97;33.63;;;4.30;99.90;;;;;;634365;226;26976;-78
2021/12/09 10:34:34;;;;;;;59.63;35.07;;;4.40;99.90;;;;;;624773;226;26636;-79
2021/12/09 10:36:59;;;;;;;56.97;34.90;;;4.40;99.90;;;;;;633912;226;26544;-77
2021/12/09 10:39:33;;;;;;;59.03;34.30;;;4.50;99.90;;;;;;630880;226;26619;-77
2021/12/09 10:42:01;;;;;;;63.13;34.67;;;4.50;99.90;;;;;;635460;226;26773;-77
2021/12/09 10:44:33;;;;;;;62.30;34.07;;;4.60;99.90;;;;;;631383;226;26626;-78
2021/12/09 10:47:09;;;;;;;62.40;34.33;;;4.60;99.90;;;;;;626976;227;26625;-78
2021/12/09 10:49:40;;;;;;;56.43;33.13;;;4.60;99.90;;;;;;624594;225;26880;-77
2021/12/09 10:52:00;;;;;;;63.23;35.07;;;4.60;99.90;;;;;;629535;225;26835;-77
2021/12/09 10:54:29;;;;;;;57.07;34.10;;;4.60;99.90;;;;;;629891;226;26841;-77
2021/12/09 10:56:56;;;;;;;61.90;33.87;;;4.50;99.90;;;;;;624961;226;26607;-77
2021/12/09 10:59:28;;;;;;;59.80;35.97;;;4.40;99.90;;;;;;634532;226;26850;-80
2021/12/09 11:02:05;;;;;;;59.63;32.93;;;4.30;99.90;;;;;;624628;226;26821;-76
2021/12/09 11:04:32;;;;;;;58.23;34.40;;;4.30;99.90;;;;;;624534;230;26597;-77
2021/12/09 11:06:59;;;;;;;59.03;35.03;;;4.40;99.90;;;;;;629217;226;26844;-77
2021/12/09 11:09:26;;;;;;;60.43;35.43;;;4.50;99.90;;;;;;631292;226;26798;-80
2021/12/09 11:11:55;;;;;;;58.87;35.17;;;4.60;99.90;;;;;;626156;226;26762;-80
2021/12/09 11:14:23;;;;;;;53.77;31.53;;;4.50;99.90;;;;;;624007;230;26795;-77
2021/12/09 11:16:51;;;;;;;57.80;33.23;;;4.50;99.90;;;;;;624222;226;26824;-76
2021/12/09 11:19:25;;;;;;;53.63;33.97;;;4.30;99.90;;;;;;623642;230;26582;-77
2021/12/09 11:21:53;;;;;;;59.83;33.40;;;4.40;99.90;;;;;;632401;222;26626;-77
2021/12/09 11:24:16;;;;;;;56.50;34.17;;;4.50;99.90;;;;;;623578;230;26562;-81
2021/12/09 11:26:53;;;;;;;61.67;34.20;;;4.50;99.90;;;;;;623725;230;26642;-79
2021/12/09 11:29:19;;;;;;;52.33;32.67;;;4.70;99.90;;;;;;623731;227;26613;-78
2021/12/09 11:31:55;;;;;;;53.77;33.27;;;4.70;99.90;;;;;;629098;226;26580;-78
2021/12/09 11:34:19;;;;;;;54.47;32.43;;;4.90;99.90;;;;;;626362;226;26643;-79
2021/12/09 11:36:46;;;;;;;53.60;33.50;;;5.10;99.90;;;;;;623208;230;26597;-78
2021/12/09 11:39:17;;;;;;;56.47;33.60;;;5.00;99.90;;;;;;623417;230;26614;-78
2021/12/09 11:41:42;;;;;;;56.43;33.80;;;5.10;99.90;;;;;;623672;230;26578;-78
2021/12/09 11:44:10;;;;;;;56.63;33.47;;;5.30;99.90;;;;;;624063;227;26563;-78
2021/12/09 11:46:37;;;;;;;55.37;33.23;;;5.30;99.90;;;;;;624105;230;26563;-78
2021/12/09 11:49:04;;;;;;;53.13;30.90;;;5.40;99.90;;;;;;624060;230;26834;-78
2021/12/09 11:51:32;;;;;;;54.70;32.53;;;5.40;99.90;;;;;;623936;230;26591;-78
2021/12/09 11:53:59;;;;;;;53.10;33.53;;;5.30;99.90;;;;;;623919;230;26859;-78
2021/12/09 11:56:37;;;;;;;51.77;32.10;;;5.20;99.90;;;;;;623868;230;26557;-79
2021/12/09 11:59:21;;;;;;;51.27;32.90;;;5.20;99.90;;;;;;622963;230;26566;-78
2021/12/09 12:12:45;;;;;;;50.63;31.80;;;5.30;99.90;;;;;;624475;230;27205;-78
2021/12/09 12:15:35;;;;;;;59.70;33.07;;;5.30;99.90;;;;;;623726;230;26593;-78
2021/12/09 12:18:23;;;;;;;50.93;30.80;;;5.30;99.90;;;;;;623710;230;26836;-78
2021/12/09 12:20:41;;;;;;;55.53;32.33;;;5.20;99.90;;;;;;622505;230;26844;-78
2021/12/09 12:23:21;;;;;;;53.93;33.43;;;5.20;99.90;;;;;;623552;230;26551;-78
2021/12/09 12:26:11;;;;;;;48.70;31.47;;;5.20;99.90;;;;;;623580;230;26801;-78
2021/12/09 12:28:30;;;;;;;50.17;32.13;;;5.30;99.90;;;;;;622226;227;26788;-78
2021/12/09 12:31:24;;;;;;;53.03;31.93;;;5.20;99.90;;;;;;623390;227;26566;-78
2021/12/09 12:34:07;;;;;;;52.90;31.10;;;5.20;99.90;;;;;;622651;228;26816;-78
2021/12/09 12:37:04;;;;;;;56.37;33.80;;;5.10;99.90;;;;;;623072;230;27432;-78
2021/12/09 12:39:13;;;;;;;55.37;32.30;;;5.00;99.90;;;;;;620214;230;26629;-77
2021/12/09 12:41:52;;;;;;;54.53;32.37;;;5.10;99.90;;;;;;623830;230;26916;-78
2021/12/09 12:44:20;;;;;;;51.67;31.57;;;4.70;99.90;;;;;;623828;226;26605;-78
2021/12/09 12:46:54;;;;;;;52.83;31.33;;;4.70;99.90;;;;;;623687;226;26618;-78
2021/12/09 12:49:21;;;;;;;60.93;35.20;;;4.60;99.90;;;;;;623211;230;26610;-78
2021/12/09 12:52:10;;;;;;;55.90;33.03;;;4.60;99.90;;;;;;623345;230;26646;-78
2021/12/09 12:54:46;;;;;;;56.63;32.73;;;4.60;99.90;;;;;;623432;230;26617;-78
2021/12/09 12:57:13;;;;;;;58.70;34.30;;;4.50;99.90;;;;;;623140;230;26628;-77